createdAt,value
2018-12-04T00:01:33.053Z,84.00
2018-12-04T00:04:01.465Z,84.00
2018-12-04T00:06:30.849Z,84.00
2018-12-04T00:08:59.243Z,84.30
2018-12-04T00:13:55.725Z,84.20
2018-12-04T00:21:20.362Z,86.00
2018-12-04T00:23:48.786Z,87.30
2018-12-04T00:26:17.188Z,88.20
2018-12-04T00:28:45.563Z,89.30
2018-12-04T00:31:13.983Z,90.20
2018-12-04T00:36:10.550Z,91.10
2018-12-04T00:38:39.018Z,91.40
2018-12-04T00:41:07.478Z,91.90
2018-12-04T00:43:35.892Z,92.20
2018-12-04T00:46:04.332Z,92.50
2018-12-04T00:48:32.728Z,92.80
2018-12-04T00:51:01.120Z,92.80
2018-12-04T00:53:29.628Z,93.10
2018-12-04T00:55:58.134Z,93.10
2018-12-04T00:58:26.546Z,93.30
2018-12-04T01:00:54.968Z,93.50
2018-12-04T01:03:23.399Z,93.40
2018-12-04T01:05:51.862Z,93.30
2018-12-04T01:10:48.388Z,93.40
2018-12-04T01:13:16.830Z,93.20
2018-12-04T01:15:45.240Z,93.50
2018-12-04T01:18:13.697Z,93.60
2018-12-04T01:20:42.138Z,93.40
2018-12-04T01:23:10.559Z,93.40
2018-12-04T01:25:38.974Z,92.70
2018-12-04T01:28:07.428Z,92.60
2018-12-04T01:30:35.888Z,92.90
2018-12-04T01:33:04.435Z,93.10
2018-12-04T01:35:32.870Z,93.00
2018-12-04T01:38:01.263Z,93.10
2018-12-04T01:40:29.730Z,92.90
2018-12-04T01:42:58.181Z,93.00
2018-12-04T01:45:26.639Z,92.80
2018-12-04T01:47:55.028Z,92.80
2018-12-04T01:50:23.465Z,93.10
2018-12-04T01:52:51.909Z,92.80
2018-12-04T01:55:20.363Z,92.90
2018-12-04T01:57:48.740Z,92.80
2018-12-04T02:00:17.171Z,92.60
2018-12-04T02:02:45.611Z,92.90
2018-12-04T02:05:14.059Z,93.00
2018-12-04T02:07:42.536Z,93.20
2018-12-04T02:12:39.052Z,93.00
2018-12-04T02:15:07.544Z,92.80
2018-12-04T02:17:35.927Z,93.10
2018-12-04T02:20:04.399Z,91.80
2018-12-04T02:22:32.807Z,91.60
2018-12-04T02:25:01.220Z,90.20
2018-12-04T02:27:29.640Z,91.70
2018-12-04T02:29:58.144Z,91.70
2018-12-04T02:32:26.553Z,91.60
2018-12-04T02:34:54.928Z,91.30
2018-12-04T02:37:23.313Z,91.40
2018-12-04T02:39:51.766Z,91.10
2018-12-04T02:42:24.396Z,90.80
2018-12-04T02:44:52.781Z,91.10
2018-12-04T02:47:21.161Z,91.20
2018-12-04T02:49:49.605Z,91.30
2018-12-04T02:52:18.026Z,91.30
2018-12-04T02:54:46.426Z,91.30
2018-12-04T02:57:14.813Z,91.40
2018-12-04T02:59:43.274Z,91.70
2018-12-04T03:02:11.668Z,91.70
2018-12-04T03:04:40.145Z,91.90
2018-12-04T03:09:36.605Z,92.10
2018-12-04T03:12:05.026Z,92.30
2018-12-04T03:14:33.438Z,92.20
2018-12-04T03:17:01.822Z,92.20
2018-12-04T03:19:30.202Z,92.40
2018-12-04T03:21:58.677Z,92.40
2018-12-04T03:24:27.084Z,92.60
2018-12-04T03:26:55.520Z,92.70
2018-12-04T03:29:23.915Z,92.70
2018-12-04T03:31:52.313Z,92.70
2018-12-04T03:34:20.658Z,92.60
2018-12-04T03:36:49.023Z,92.80
2018-12-04T03:39:17.465Z,92.80
2018-12-04T03:41:45.762Z,92.80
2018-12-04T03:44:14.163Z,92.80
2018-12-04T03:46:42.550Z,92.80
2018-12-04T03:49:10.962Z,92.80
2018-12-04T03:51:39.345Z,92.80
2018-12-04T03:54:07.707Z,92.80
2018-12-04T03:59:04.179Z,92.80
2018-12-04T04:01:32.535Z,92.90
2018-12-04T04:04:00.919Z,92.90
2018-12-04T04:06:29.319Z,93.00
2018-12-04T04:08:57.746Z,93.10
2018-12-04T04:11:26.172Z,93.20
2018-12-04T04:13:54.594Z,93.20
2018-12-04T04:16:23.011Z,93.10
2018-12-04T04:18:51.434Z,93.10
2018-12-04T04:21:19.852Z,93.10
2018-12-04T04:23:48.218Z,93.30
2018-12-04T04:26:16.791Z,93.00
2018-12-04T04:28:45.200Z,93.10
2018-12-04T04:31:13.682Z,93.20
2018-12-04T04:33:42.146Z,93.30
2018-12-04T04:38:38.604Z,93.30
2018-12-04T04:41:07.024Z,93.30
2018-12-04T04:43:35.426Z,93.20
2018-12-04T04:46:03.824Z,93.20
2018-12-04T04:48:32.255Z,93.10
2018-12-04T04:51:00.621Z,93.20
2018-12-04T04:55:57.162Z,93.30
2018-12-04T05:00:53.680Z,93.50
2018-12-04T05:03:22.082Z,93.50
2018-12-04T05:05:50.478Z,93.60
2018-12-04T05:10:46.971Z,93.50
2018-12-04T05:13:15.322Z,93.50
2018-12-04T05:15:43.694Z,93.70
2018-12-04T05:18:12.082Z,93.80
2018-12-04T05:20:40.458Z,93.80
2018-12-04T05:25:36.957Z,93.90
2018-12-04T05:28:05.381Z,93.80
2018-12-04T05:33:01.839Z,93.80
2018-12-04T05:37:58.297Z,93.70
2018-12-04T05:40:26.662Z,93.80
2018-12-04T05:42:55.034Z,93.80
2018-12-04T05:45:23.466Z,93.70
2018-12-04T05:47:51.950Z,93.50
2018-12-04T05:50:20.369Z,93.60
2018-12-04T05:53:59.025Z,93.50
2018-12-04T05:56:27.411Z,93.70
2018-12-04T05:58:55.789Z,93.70
2018-12-04T06:01:24.579Z,93.60
2018-12-04T06:06:21.148Z,93.00
2018-12-04T06:11:17.674Z,93.20
2018-12-04T06:18:42.172Z,93.50
2018-12-04T06:33:39.403Z,92.80
2018-12-04T06:36:07.508Z,92.90
2018-12-04T07:01:17.256Z,93.10
2018-12-04T07:03:45.419Z,93.10
2018-12-04T07:08:41.499Z,93.00
2018-12-04T07:13:37.584Z,92.80
2018-12-04T07:16:05.717Z,92.80
2018-12-04T07:21:01.758Z,92.90
2018-12-04T07:25:57.846Z,92.40
2018-12-04T07:28:26.057Z,92.60
2018-12-04T07:30:54.305Z,92.50
2018-12-04T07:33:22.581Z,92.70
2018-12-04T07:35:50.824Z,92.80
2018-12-04T07:40:46.864Z,92.70
2018-12-04T07:48:10.800Z,92.90
2018-12-04T07:53:07.028Z,93.40
2018-12-04T08:12:59.520Z,90.90
2018-12-04T08:15:29.904Z,91.20
2018-12-04T08:17:58.168Z,91.70
2018-12-04T08:20:26.277Z,92.10
2018-12-04T08:22:56.995Z,92.20
2018-12-04T08:27:58.480Z,92.80
2018-12-04T08:30:26.604Z,92.60
2018-12-04T08:37:50.691Z,92.10
2018-12-04T08:40:19.270Z,92.10
2018-12-04T08:47:43.510Z,91.90
2018-12-04T08:50:11.646Z,92.10
2018-12-04T08:52:39.995Z,92.10
2018-12-04T08:55:08.693Z,92.20
2018-12-04T08:57:36.819Z,92.20
2018-12-04T09:00:09.052Z,92.20
2018-12-04T09:02:37.228Z,92.30
2018-12-04T09:07:33.879Z,92.10
2018-12-04T09:12:29.920Z,92.20
2018-12-04T09:17:25.982Z,92.20
2018-12-04T09:22:22.337Z,91.70
2018-12-04T09:24:50.606Z,91.60
2018-12-04T09:27:18.810Z,91.60
2018-12-04T09:29:47.054Z,91.40
2018-12-04T09:32:15.348Z,91.30
2018-12-04T09:34:43.497Z,91.40
2018-12-04T09:37:11.759Z,91.20
2018-12-04T09:39:39.948Z,91.30
2018-12-04T09:42:08.174Z,91.10
2018-12-04T09:44:36.372Z,90.70
2018-12-04T09:47:08.045Z,90.90
2018-12-04T09:49:36.344Z,90.80
2018-12-04T09:52:04.549Z,91.00
2018-12-04T09:54:32.760Z,91.00
2018-12-04T09:57:00.875Z,91.20
2018-12-04T09:59:29.082Z,91.00
2018-12-04T10:01:57.488Z,90.90
2018-12-04T10:04:26.168Z,90.60
2018-12-04T10:09:26.004Z,90.70
2018-12-04T10:11:54.202Z,90.10
2018-12-04T10:14:22.372Z,90.10
2018-12-04T10:16:51.386Z,89.10
2018-12-04T10:19:19.656Z,89.50
2018-12-04T10:21:48.089Z,89.10
2018-12-04T10:24:16.248Z,89.20
2018-12-04T10:26:46.511Z,89.00
2018-12-04T10:29:14.736Z,89.20
2018-12-04T10:31:42.844Z,88.80
2018-12-04T10:34:10.942Z,88.10
2018-12-04T10:36:39.036Z,88.40
2018-12-04T10:39:07.432Z,88.60
2018-12-04T10:41:35.600Z,88.30
2018-12-04T10:44:03.856Z,88.40
2018-12-04T10:46:31.972Z,88.40
2018-12-04T10:53:55.830Z,88.80
2018-12-04T10:56:24.006Z,88.20
2018-12-04T10:58:52.230Z,88.20
2018-12-04T11:01:24.450Z,89.10
2018-12-04T11:03:52.687Z,88.30
2018-12-04T11:06:20.858Z,88.20
2018-12-04T11:08:49.053Z,87.90
2018-12-04T11:11:17.159Z,87.90
2018-12-04T11:16:13.220Z,88.30
2018-12-04T11:18:41.352Z,88.30
2018-12-04T11:21:10.485Z,88.10
2018-12-04T11:26:06.453Z,88.40
2018-12-04T11:28:34.600Z,89.10
2018-12-04T11:33:30.800Z,89.00
2018-12-04T11:35:58.908Z,88.60
2018-12-04T11:38:27.067Z,88.50
2018-12-04T11:40:55.495Z,88.70
2018-12-04T11:45:52.700Z,89.70
2018-12-04T11:48:20.968Z,88.10
2018-12-04T11:50:49.081Z,88.80
2018-12-04T11:53:17.188Z,88.90
2018-12-04T11:55:45.380Z,89.10
2018-12-04T11:58:13.607Z,89.60
2018-12-04T12:00:41.815Z,89.70
2018-12-04T12:03:10.284Z,90.10
2018-12-04T12:05:38.372Z,90.30
2018-12-04T12:13:02.414Z,91.50
2018-12-04T12:15:30.544Z,91.70
2018-12-04T12:18:05.234Z,91.70
2018-12-04T12:20:33.463Z,91.50
2018-12-04T12:23:01.662Z,91.70
2018-12-04T12:25:29.857Z,91.90
2018-12-04T12:27:57.985Z,92.00
2018-12-04T12:30:26.149Z,92.10
2018-12-04T12:45:13.865Z,92.30
2018-12-04T12:50:10.432Z,92.30
2018-12-04T12:55:06.754Z,91.50
2018-12-04T12:57:34.952Z,91.40
2018-12-04T13:00:03.816Z,91.40
2018-12-04T13:02:31.932Z,91.90
2018-12-04T13:05:01.182Z,91.70
2018-12-04T13:12:25.322Z,91.30
2018-12-04T13:17:21.520Z,91.30
2018-12-04T13:19:49.677Z,90.70
2018-12-04T13:22:17.892Z,90.60
2018-12-04T13:24:47.015Z,90.70
2018-12-04T13:27:15.381Z,90.70
2018-12-04T13:29:43.742Z,90.80
2018-12-04T13:42:05.446Z,90.20
2018-12-04T13:54:25.534Z,90.40
2018-12-04T13:56:53.711Z,90.40
2018-12-04T13:59:21.904Z,90.20
2018-12-04T14:01:50.097Z,90.40
2018-12-04T14:04:18.264Z,90.70
2018-12-04T14:06:46.989Z,90.70
2018-12-04T14:09:15.184Z,90.70
2018-12-04T14:11:43.358Z,90.80
2018-12-04T14:16:43.240Z,90.80
2018-12-04T14:19:11.449Z,90.90
2018-12-04T14:21:39.722Z,91.20
2018-12-04T14:24:08.094Z,91.50
2018-12-04T14:26:36.262Z,91.50
2018-12-04T14:29:04.433Z,91.90
2018-12-04T14:31:32.538Z,92.10
2018-12-04T14:34:00.704Z,92.40
2018-12-04T14:36:28.889Z,92.50
2018-12-04T14:38:57.038Z,92.40
2018-12-04T14:41:26.129Z,92.40
2018-12-04T14:43:54.395Z,92.70
2018-12-04T14:46:22.581Z,93.00
2018-12-04T14:48:50.856Z,93.10
2018-12-04T14:51:19.128Z,93.00
2018-12-04T14:53:47.314Z,92.40
2018-12-04T14:58:43.503Z,92.80
2018-12-04T15:01:11.754Z,93.00
2018-12-04T15:06:07.983Z,93.20
2018-12-04T15:08:36.137Z,93.30
2018-12-04T15:11:04.420Z,93.20
2018-12-04T15:13:32.527Z,93.50
2018-12-04T15:16:00.693Z,93.70
2018-12-04T15:18:28.948Z,93.90
2018-12-04T15:23:25.058Z,93.80
2018-12-04T15:25:53.381Z,93.70
2018-12-04T15:28:21.714Z,93.60
2018-12-04T15:30:49.961Z,93.60
2018-12-04T15:33:18.082Z,93.60
2018-12-04T15:35:46.260Z,93.80
2018-12-04T15:38:14.534Z,93.70
2018-12-04T15:40:42.828Z,93.70
2018-12-04T15:43:11.028Z,93.80
2018-12-04T15:45:39.278Z,93.90
2018-12-04T15:50:35.344Z,93.90
2018-12-04T15:53:03.513Z,93.80
2018-12-04T15:55:31.764Z,93.90
2018-12-04T15:57:59.874Z,94.20
2018-12-04T16:00:28.076Z,93.90
2018-12-04T16:02:56.183Z,93.90
2018-12-04T16:05:24.367Z,93.90
2018-12-04T16:07:52.622Z,94.00
2018-12-04T16:10:20.808Z,94.00
2018-12-04T16:12:49.019Z,94.20
2018-12-04T16:20:19.537Z,94.30
2018-12-04T16:22:47.694Z,94.20
2018-12-04T16:27:50.216Z,94.20
2018-12-04T16:30:18.373Z,94.30
2018-12-04T16:37:42.380Z,94.10
2018-12-04T16:42:38.510Z,93.90
2018-12-04T16:45:13.467Z,93.90
2018-12-04T16:47:41.607Z,93.90
2018-12-04T16:50:09.977Z,94.10
2018-12-04T16:52:38.196Z,94.00
2018-12-04T16:55:06.971Z,94.40
2018-12-04T16:57:35.196Z,94.30
2018-12-04T17:00:03.992Z,94.30
2018-12-04T17:02:32.126Z,94.50
2018-12-04T17:05:00.331Z,94.30
2018-12-04T17:07:28.484Z,94.30
2018-12-04T17:09:56.796Z,94.30
2018-12-04T17:12:24.917Z,94.40
2018-12-04T17:14:53.065Z,94.30
2018-12-04T17:17:21.278Z,94.10
2018-12-04T17:19:49.407Z,94.10
2018-12-04T17:24:45.452Z,94.10
2018-12-04T17:27:13.588Z,94.10
2018-12-04T17:29:41.810Z,94.40
2018-12-04T17:32:10.000Z,94.50
2018-12-04T17:37:06.167Z,94.30
2018-12-04T17:39:34.313Z,94.30
2018-12-04T17:42:02.537Z,94.20
2018-12-04T17:44:30.767Z,94.20
2018-12-04T17:46:59.148Z,94.30
2018-12-04T17:49:27.381Z,94.50
2018-12-04T17:51:55.520Z,94.50
2018-12-04T17:54:23.736Z,94.30
2018-12-04T17:56:51.964Z,94.60
2018-12-04T17:59:20.104Z,94.40
2018-12-04T18:01:48.391Z,94.70
2018-12-04T18:04:16.588Z,94.50
2018-12-04T18:06:44.728Z,94.30
2018-12-04T18:09:12.856Z,94.20
2018-12-04T18:11:41.088Z,93.90
2018-12-04T18:14:09.220Z,93.90
2018-12-04T18:16:37.336Z,93.90
2018-12-04T18:19:05.635Z,94.30
2018-12-04T18:21:33.857Z,94.40
2018-12-04T18:24:02.068Z,94.40
2018-12-04T18:26:30.444Z,94.50
2018-12-04T18:28:58.584Z,94.70
2018-12-04T18:31:26.718Z,94.10
2018-12-04T18:33:54.920Z,93.90
2018-12-04T18:36:23.048Z,94.00
2018-12-04T18:38:51.274Z,94.10
2018-12-04T18:41:19.485Z,94.20
2018-12-04T18:43:47.615Z,94.20
2018-12-04T18:46:16.495Z,94.20
2018-12-04T18:48:44.728Z,94.10
2018-12-04T18:51:12.944Z,94.10
2018-12-04T18:56:09.220Z,94.40
2018-12-04T18:58:37.369Z,94.60
2018-12-04T19:01:05.609Z,94.50
2018-12-04T19:03:33.868Z,94.40
2018-12-04T19:06:02.084Z,94.70
2018-12-04T19:08:35.744Z,94.20
2018-12-04T19:11:04.338Z,94.00
2018-12-04T19:13:32.452Z,94.10
2018-12-04T19:16:00.744Z,94.30
2018-12-04T19:18:28.872Z,94.60
2018-12-04T19:20:56.999Z,94.60
2018-12-04T19:23:25.164Z,94.50
2018-12-04T19:25:53.309Z,94.30
2018-12-04T19:28:21.515Z,94.70
2018-12-04T19:30:49.732Z,94.20
2018-12-04T19:33:18.006Z,93.90
2018-12-04T19:35:46.453Z,93.90
2018-12-04T19:38:14.708Z,94.00
2018-12-04T19:40:43.360Z,93.80
2018-12-04T19:45:39.608Z,93.80
2018-12-04T19:48:07.768Z,93.80
2018-12-04T19:50:35.974Z,93.90
2018-12-04T19:53:04.184Z,94.40
2018-12-04T19:55:32.405Z,94.50
2018-12-04T19:58:00.616Z,94.20
2018-12-04T20:02:56.751Z,94.40
2018-12-04T20:05:24.948Z,94.30
2018-12-04T20:07:53.156Z,94.60
2018-12-04T20:12:49.220Z,93.20
2018-12-04T20:15:17.525Z,93.30
2018-12-04T20:17:45.675Z,93.70
2018-12-04T20:20:13.801Z,94.10
2018-12-04T20:22:42.067Z,94.10
2018-12-04T20:25:10.293Z,93.30
2018-12-04T20:27:38.424Z,93.00
2018-12-04T20:30:07.664Z,93.30
2018-12-04T20:32:35.782Z,93.40
2018-12-04T20:35:04.989Z,93.90
2018-12-04T20:37:33.310Z,93.60
2018-12-04T20:40:01.449Z,93.60
2018-12-04T20:42:29.761Z,93.50
2018-12-04T20:44:57.976Z,93.50
2018-12-04T20:47:26.107Z,93.70
2018-12-04T20:49:54.231Z,93.80
2018-12-04T20:52:22.353Z,93.70
2018-12-04T20:54:50.564Z,93.60
2018-12-04T20:57:18.843Z,93.50
2018-12-04T20:59:46.972Z,93.60
2018-12-04T21:02:15.180Z,93.60
2018-12-04T21:04:43.388Z,93.60
2018-12-04T21:07:11.524Z,93.60
2018-12-04T21:09:39.644Z,93.80
2018-12-04T21:12:07.782Z,94.00
2018-12-04T21:14:35.863Z,94.00
2018-12-04T21:17:04.060Z,93.40
2018-12-04T21:19:32.161Z,93.40
2018-12-04T21:22:00.421Z,93.50
2018-12-04T21:24:28.548Z,93.50
2018-12-04T21:26:56.660Z,93.40
2018-12-04T21:29:30.057Z,93.70
2018-12-04T21:32:03.680Z,94.00
2018-12-04T21:34:37.165Z,94.00
2018-12-04T21:37:10.727Z,93.30
2018-12-04T21:39:40.808Z,93.60
2018-12-04T21:42:15.248Z,93.40
2018-12-04T21:44:48.825Z,93.30
2018-12-04T21:47:22.273Z,93.30
2018-12-04T21:49:50.475Z,93.60
2018-12-04T21:52:18.622Z,93.80
2018-12-04T21:54:46.799Z,94.10
2018-12-04T21:57:14.996Z,93.60
2018-12-04T21:59:43.200Z,93.50
2018-12-04T22:02:11.315Z,93.40
2018-12-04T22:07:07.461Z,93.60
2018-12-04T22:09:35.567Z,93.40
2018-12-04T22:12:03.823Z,93.10
2018-12-04T22:14:32.032Z,93.20
2018-12-04T22:17:00.229Z,93.00
2018-12-04T22:19:28.349Z,93.20
2018-12-04T22:21:56.636Z,93.50
2018-12-04T22:24:24.774Z,93.00
2018-12-04T22:26:53.064Z,92.70
2018-12-04T22:29:21.184Z,92.80
2018-12-04T22:31:49.348Z,93.00
2018-12-04T22:34:17.503Z,93.00
2018-12-04T22:36:45.665Z,92.90
2018-12-04T22:39:13.884Z,93.50
2018-12-04T22:41:42.024Z,93.50
2018-12-04T22:44:10.248Z,93.60
2018-12-04T22:46:38.390Z,93.80
2018-12-04T22:49:06.691Z,93.50
2018-12-04T22:51:36.691Z,93.50
2018-12-04T22:54:05.258Z,93.60
2018-12-04T22:56:33.459Z,93.70
2018-12-04T22:59:01.568Z,93.20
2018-12-04T23:01:39.236Z,93.10
2018-12-04T23:04:07.664Z,92.50
2018-12-04T23:06:36.028Z,92.60
2018-12-04T23:09:08.814Z,93.00
2018-12-04T23:11:37.793Z,93.40
2018-12-04T23:14:06.409Z,93.30
2018-12-04T23:16:34.752Z,92.90
2018-12-04T23:19:03.185Z,93.10
2018-12-04T23:21:31.484Z,93.20
2018-12-04T23:23:59.743Z,93.00
2018-12-04T23:26:28.055Z,93.10
2018-12-04T23:28:56.284Z,93.00
2018-12-04T23:31:24.486Z,93.10
2018-12-04T23:33:52.660Z,93.10
2018-12-04T23:36:20.775Z,93.00
2018-12-04T23:38:48.980Z,93.10
2018-12-04T23:41:17.104Z,93.20
2018-12-04T23:43:45.312Z,92.80
2018-12-04T23:46:13.578Z,92.80
2018-12-04T23:48:41.808Z,93.20
2018-12-04T23:51:10.110Z,93.10
2018-12-04T23:53:38.327Z,93.10
2018-12-04T23:56:06.494Z,93.30
2018-12-04T23:58:34.607Z,93.00
